Rosecrans Memorial Airport
KSTJ : now visible

Airfield :











YOU CAN JOIN US ON...

 
LOGIN :

Register | Disclaimer

   EN    FR    IT 

 









Legend :    VFR   Marginal VFR   IFR   Intensive IFR   Very Intensive IFR
Visi :
Ceiling :
>= 8 km
>= 3000ft
5 to 8 km
1000 to 3000 ft
1500m to 5 km
500 to 1000 ft
800 to 1500m
200 to 500 ft
< 800m
< 200 ft
Symbols :   Thunderstorms  Fog  Heavy snow  Heavy precipitations  Wind > 20 kt






- Airport Elevation : 826 ft


KSTJ - Rosecrans Memorial

CURRENT METAR :
  • 191653Z 23008KT 10SM FEW090 23/18 A2992 RMK AO2 SLP125 T02330178

EXPIRED METARs :
  • 191553Z 22013KT 10SM CLR 23/17 A2992 RMK AO2 SLP126 T02280172
  • 191453Z 24006KT 10SM FEW110 23/18 A2990 RMK AO2 SLP120 T02280178 53001

TAF KSTJ
Valid from the 19 at 18:00 until the 20 at 18:00 UTC


191726Z 1918/2018 23008KT P6SM SCT100
FM192000 22009KT P6SM VCTS SCT060CB BKN090
FM192300 20005KT P6SM -SHRA VCTS BKN060CB
FM200400 21009KT P6SM SCT150
FM200800 28008KT P6SM BKN040
KZKC FIR / North America



MET'MAP, your aeronautical weather chart ! - Copyright ORBIFLY December 2007 - Disclaimer

ORBIFLY MET'MAP TEAM :

Programming & Development : Alexandra Zaïnal
Original concept : Baudouin d'Aumeries
Technical & hardware support : Manuel Goepfert
Assistance : Marc-Olivier Méhu




SOURCES & CREDITS :

   NOAA       Earth
Advisory